Pilgrim, New York
Current Conditions -  °F | °C
As of 8:51 PM on Wednesday 22 Oct 2014 (Local Time) from KLGA Reporting Station
Moderate Rain Moderate Rain  
Wind Chill: 53°   Ceiling: 2300
Heat Index: 53°   Visibility: 9mi
Dew Point: 49°   Wind: 18mph
Humidity: 86%   Direction: 360°N
Pressure: 29.76"   Gusts: 31mph
Location:  40.8469°N, 73.8398°W
Report Text: KLGA 230051Z 36016G27KT 9SM RA SCT015 BKN023 OVC030 12/09 A2976 RMK AO2 PK WND 36027/0043 SLP076 P0009 T01170094
Loading
Personal Weather Stations






























Interactive Weather Map
Tropical Storm Tracking
New forecast layout! Learn more

10-Day Weather Forecast

Advertisements
Track Severe Weather on mobile